Time;durP1;ratioP1;P1;durP2;ratioP2;P2;SDS_P1;SDS_P2;PMS_P1;PMS_P2;Temp;Humidity;BMP_temperature;BMP_pressure;BME280_temperature;BME280_humidity;BME280_pressure;Samples;Min_cycle;Max_cycle;Signal;HPM_P1;HPM_P2
2022/05/27 00:01:07;;;;;;;3.17;1.20;;;17.10;99.90;;;;;;5011929;28;20652;-59
2022/05/27 00:03:33;;;;;;;3.40;1.73;;;17.00;99.90;;;;;;5011888;28;20207;-60
2022/05/27 00:06:00;;;;;;;2.15;1.50;;;17.00;99.90;;;;;;5011478;28;20218;-60
2022/05/27 00:08:28;;;;;;;4.03;1.50;;;16.90;99.90;;;;;;5011705;28;20727;-60
2022/05/27 00:10:55;;;;;;;3.37;1.47;;;16.90;99.90;;;;;;5011917;28;20234;-60
2022/05/27 00:13:22;;;;;;;1.52;1.08;;;16.80;99.90;;;;;;5011895;28;20214;-60
2022/05/27 00:15:49;;;;;;;3.47;1.10;;;16.80;99.90;;;;;;5014997;28;20206;-60
2022/05/27 00:18:17;;;;;;;2.57;1.33;;;16.70;99.90;;;;;;5015455;28;20281;-60
2022/05/27 00:20:44;;;;;;;2.23;1.37;;;16.70;99.90;;;;;;5015706;28;20233;-60
2022/05/27 00:23:11;;;;;;;2.20;1.20;;;16.70;99.90;;;;;;5015540;28;20595;-61
2022/05/27 00:25:38;;;;;;;2.13;1.30;;;16.70;99.90;;;;;;5015216;28;20207;-60
2022/05/27 00:28:05;;;;;;;1.90;1.13;;;16.60;99.90;;;;;;5015408;28;20230;-60
2022/05/27 00:30:32;;;;;;;3.07;1.30;;;16.50;99.90;;;;;;5015567;28;20240;-59
2022/05/27 00:32:59;;;;;;;1.67;1.20;;;16.50;99.90;;;;;;5015308;28;20203;-60
2022/05/27 00:35:27;;;;;;;2.07;1.43;;;16.40;99.90;;;;;;5015223;28;20703;-60
2022/05/27 00:37:54;;;;;;;2.60;1.30;;;16.40;99.90;;;;;;5015169;28;20699;-59
2022/05/27 00:40:22;;;;;;;3.23;1.30;;;16.30;99.90;;;;;;5015202;28;20690;-59
2022/05/27 00:42:48;;;;;;;2.50;1.40;;;16.30;99.90;;;;;;5015374;28;20261;-59
2022/05/27 00:45:18;;;;;;;2.50;1.50;;;16.20;99.90;;;;;;5014955;28;20207;-60
2022/05/27 00:47:49;;;;;;;2.87;1.30;;;16.20;99.90;;;;;;5015139;28;20239;-60
2022/05/27 00:50:20;;;;;;;3.47;1.80;;;16.20;99.90;;;;;;5015328;28;20211;-60
2022/05/27 00:52:49;;;;;;;3.93;1.40;;;16.10;99.90;;;;;;5015125;28;20213;-60
2022/05/27 00:55:19;;;;;;;3.93;1.47;;;16.10;99.90;;;;;;5015048;28;20238;-60
2022/05/27 00:57:49;;;;;;;2.20;1.40;;;16.10;99.90;;;;;;5014845;28;20220;-60
2022/05/27 01:00:19;;;;;;;4.30;1.50;;;16.10;99.90;;;;;;5015147;28;20238;-60
2022/05/27 01:02:46;;;;;;;2.43;1.23;;;16.10;99.90;;;;;;5014929;28;20206;-60
2022/05/27 01:05:16;;;;;;;3.00;1.20;;;16.00;99.90;;;;;;5015196;28;20671;-60
2022/05/27 01:07:43;;;;;;;2.17;1.27;;;16.00;99.90;;;;;;5015561;28;20324;-59
2022/05/27 01:10:14;;;;;;;1.60;1.30;;;16.00;99.90;;;;;;5015870;28;20207;-60
2022/05/27 01:13:01;;;;;;;4.30;1.37;;;16.00;99.90;;;;;;5016143;28;20211;-59
2022/05/27 01:15:35;;;;;;;2.60;1.40;;;16.00;99.90;;;;;;5014770;28;20238;-60
2022/05/27 01:18:19;;;;;;;3.63;1.60;;;16.00;99.90;;;;;;5014626;28;20300;-59
2022/05/27 01:20:52;;;;;;;2.93;1.40;;;16.00;99.90;;;;;;5014469;28;20207;-60
2022/05/27 01:23:56;;;;;;;2.90;1.40;;;16.00;99.90;;;;;;5014686;28;20211;-60
2022/05/27 01:26:55;;;;;;;4.10;2.27;;;15.90;99.90;;;;;;5014077;28;20214;-60
2022/05/27 01:30:05;;;;;;;2.50;1.40;;;15.90;99.90;;;;;;5014238;28;20715;-60
2022/05/27 01:32:41;;;;;;;3.53;1.50;;;15.90;99.90;;;;;;5014333;28;20226;-61
2022/05/27 01:35:18;;;;;;;3.00;1.40;;;15.80;99.90;;;;;;5014270;28;20487;-60
2022/05/27 01:37:52;;;;;;;2.87;1.20;;;15.80;99.90;;;;;;5014294;28;20227;-60
2022/05/27 01:40:30;;;;;;;4.23;1.40;;;15.80;99.90;;;;;;5014397;28;20253;-60
2022/05/27 01:43:02;;;;;;;2.00;1.10;;;15.80;99.90;;;;;;5014064;28;20671;-60
2022/05/27 01:45:37;;;;;;;3.50;1.30;;;15.80;99.90;;;;;;5013918;28;20211;-60
2022/05/27 01:48:09;;;;;;;2.83;1.70;;;15.80;99.90;;;;;;5014112;28;20234;-60
2022/05/27 01:50:42;;;;;;;2.77;1.53;;;15.80;99.90;;;;;;5014050;28;20210;-60
2022/05/27 01:53:16;;;;;;;2.20;1.40;;;15.80;99.90;;;;;;5013881;28;20647;-60
2022/05/27 01:55:50;;;;;;;2.47;1.33;;;15.80;99.90;;;;;;5013424;28;20203;-60
2022/05/27 01:58:21;;;;;;;2.03;1.17;;;15.80;99.90;;;;;;5013736;28;20227;-60
2022/05/27 02:00:49;;;;;;;2.00;1.30;;;15.80;99.90;;;;;;5014063;28;20252;-60
2022/05/27 02:03:23;;;;;;;2.33;1.60;;;15.90;99.90;;;;;;5013916;28;20207;-60
2022/05/27 02:05:57;;;;;;;1.97;1.30;;;15.80;99.90;;;;;;5013533;28;20211;-60
2022/05/27 02:08:27;;;;;;;1.90;1.47;;;15.80;99.90;;;;;;5013682;28;20304;-60
2022/05/27 02:10:58;;;;;;;2.87;1.40;;;15.70;99.90;;;;;;5013979;28;20214;-60
2022/05/27 02:13:30;;;;;;;2.27;1.20;;;15.70;99.90;;;;;;5013585;28;20204;-60
2022/05/27 02:15:57;;;;;;;2.37;1.23;;;15.70;99.90;;;;;;5013313;28;20211;-60
2022/05/27 02:18:30;;;;;;;3.50;1.60;;;15.70;99.90;;;;;;5013418;28;20234;-59
2022/05/27 02:21:01;;;;;;;2.77;1.30;;;15.70;99.90;;;;;;5013426;28;20206;-60
2022/05/27 02:23:31;;;;;;;2.83;1.60;;;15.60;99.90;;;;;;5013702;28;20272;-59
2022/05/27 02:26:00;;;;;;;3.00;1.40;;;15.60;99.90;;;;;;5014091;28;20210;-60
2022/05/27 02:28:31;;;;;;;1.43;1.30;;;15.60;99.90;;;;;;5013932;28;20239;-60
2022/05/27 02:31:03;;;;;;;4.23;1.50;;;15.60;99.90;;;;;;5013705;28;20261;-60
2022/05/27 02:36:20;;;;;;;1.83;1.43;;;15.50;99.90;;;;;;5013083;28;20210;-62
2022/05/27 02:38:48;;;;;;;2.73;1.60;;;15.50;99.90;;;;;;5013065;28;20227;-60
2022/05/27 02:41:21;;;;;;;2.40;1.50;;;15.50;99.90;;;;;;5013482;28;20613;-61
2022/05/27 02:44:04;;;;;;;6.37;1.60;;;15.50;99.90;;;;;;5013119;28;20229;-60
2022/05/27 02:46:39;;;;;;;4.80;1.70;;;15.40;99.90;;;;;;5012867;28;20218;-60
2022/05/27 02:49:17;;;;;;;3.20;1.63;;;15.40;99.90;;;;;;5012595;28;20721;-60
2022/05/27 02:51:48;;;;;;;4.43;1.80;;;15.30;99.90;;;;;;5012756;28;20207;-60
2022/05/27 02:54:23;;;;;;;3.37;1.70;;;15.30;99.90;;;;;;5012761;28;20206;-60
2022/05/27 02:56:59;;;;;;;3.03;1.90;;;15.30;99.90;;;;;;5013140;28;20210;-60
2022/05/27 02:59:26;;;;;;;1.60;1.50;;;15.30;99.90;;;;;;5012831;28;20222;-60
2022/05/27 03:01:53;;;;;;;2.43;1.57;;;15.30;99.90;;;;;;5012818;28;20214;-60
2022/05/27 03:04:22;;;;;;;3.90;1.97;;;15.30;99.90;;;;;;5012472;28;20207;-60
2022/05/27 03:07:00;;;;;;;3.63;1.63;;;15.30;99.90;;;;;;5012609;28;20269;-60
2022/05/27 03:09:36;;;;;;;2.50;1.60;;;15.40;99.90;;;;;;5012909;28;20258;-60
2022/05/27 03:12:13;;;;;;;4.00;2.37;;;15.40;99.90;;;;;;5012794;28;20211;-60
2022/05/27 03:15:01;;;;;;;3.17;1.57;;;15.60;99.90;;;;;;5012525;28;20277;-59
2022/05/27 03:17:42;;;;;;;3.37;1.60;;;15.70;99.90;;;;;;5012613;28;20238;-60
2022/05/27 03:20:35;;;;;;;3.30;1.60;;;15.90;99.90;;;;;;5012660;28;20203;-60
2022/05/27 03:23:14;;;;;;;3.60;1.60;;;16.00;99.90;;;;;;5012530;28;20708;-60
2022/05/27 03:25:46;;;;;;;4.20;2.40;;;16.20;99.90;;;;;;5012062;28;20207;-60
2022/05/27 03:28:17;;;;;;;2.77;1.83;;;16.30;99.90;;;;;;5012340;28;20242;-60
2022/05/27 03:30:54;;;;;;;3.83;1.87;;;16.50;99.90;;;;;;5012530;28;20206;-60
2022/05/27 03:33:28;;;;;;;6.00;1.60;;;16.60;99.90;;;;;;5012345;28;20606;-60
2022/05/27 03:36:01;;;;;;;2.97;1.53;;;16.70;99.90;;;;;;5012082;28;20210;-60
2022/05/27 03:38:35;;;;;;;3.37;1.70;;;16.70;99.90;;;;;;5012458;28;20225;-60
2022/05/27 03:41:07;;;;;;;3.23;1.73;;;16.80;99.90;;;;;;5012298;28;20215;-60
2022/05/27 03:43:36;;;;;;;6.93;1.97;;;16.90;99.90;;;;;;5012359;28;20298;-60
2022/05/27 03:46:04;;;;;;;2.70;1.50;;;17.00;99.90;;;;;;5012105;28;20206;-60
2022/05/27 03:48:34;;;;;;;5.40;2.00;;;17.10;99.90;;;;;;5012118;28;20234;-60
2022/05/27 03:51:07;;;;;;;4.07;1.77;;;17.10;99.90;;;;;;5016298;28;20281;-62
2022/05/27 03:56:18;;;;;;;3.67;2.08;;;17.30;99.90;;;;;;5016076;28;20206;-60
2022/05/27 03:58:45;;;;;;;1.87;1.40;;;17.30;99.90;;;;;;5016071;28;20227;-60
2022/05/27 04:01:11;;;;;;;4.33;1.60;;;17.40;99.90;;;;;;5015977;28;20306;-59
2022/05/27 04:03:38;;;;;;;3.90;1.70;;;17.40;99.90;;;;;;5015887;28;20667;-60
2022/05/27 04:06:06;;;;;;;3.47;2.08;;;17.40;99.90;;;;;;5016202;28;20207;-60
2022/05/27 04:08:33;;;;;;;4.07;2.33;;;17.50;99.90;;;;;;5015894;28;20242;-59
2022/05/27 04:10:59;;;;;;;2.80;1.70;;;17.40;99.90;;;;;;5015968;28;20630;-61
2022/05/27 04:13:26;;;;;;;3.80;1.90;;;17.50;99.90;;;;;;5015970;28;20203;-61
2022/05/27 04:15:53;;;;;;;4.47;1.80;;;17.50;99.90;;;;;;5015923;28;20219;-61
2022/05/27 04:18:19;;;;;;;5.70;2.85;;;17.50;99.90;;;;;;5015624;28;20241;-61
2022/05/27 04:20:47;;;;;;;3.13;1.65;;;17.50;99.90;;;;;;5015865;28;20583;-60
2022/05/27 04:23:15;;;;;;;3.78;1.70;;;17.60;99.90;;;;;;5015730;28;20211;-59
2022/05/27 04:25:45;;;;;;;3.83;2.13;;;17.60;99.90;;;;;;5015397;28;20211;-59
2022/05/27 04:28:12;;;;;;;2.95;1.80;;;17.70;99.90;;;;;;5015433;28;20632;-61
2022/05/27 04:30:39;;;;;;;3.55;1.98;;;17.80;99.90;;;;;;5015644;28;20663;-61
2022/05/27 04:33:06;;;;;;;4.07;2.00;;;17.80;99.90;;;;;;5015563;28;20350;-61
2022/05/27 04:35:33;;;;;;;4.32;1.80;;;17.90;99.90;;;;;;5015517;28;20350;-61
2022/05/27 04:38:00;;;;;;;3.38;2.30;;;18.00;99.90;;;;;;5015389;28;20318;-61
2022/05/27 04:40:28;;;;;;;3.25;2.00;;;18.10;99.90;;;;;;5015608;28;20203;-61
2022/05/27 04:42:54;;;;;;;2.83;2.10;;;18.20;99.90;;;;;;5015520;28;20207;-61
2022/05/27 04:45:21;;;;;;;4.00;1.77;;;18.30;99.90;;;;;;5015190;28;20632;-61
2022/05/27 04:47:48;;;;;;;3.25;2.00;;;18.50;99.90;;;;;;5014966;28;20234;-60
2022/05/27 04:50:18;;;;;;;4.25;1.80;;;18.60;99.90;;;;;;5015166;28;20207;-61
2022/05/27 04:52:45;;;;;;;5.10;1.60;;;18.70;99.90;;;;;;5015119;28;20222;-61
2022/05/27 04:55:14;;;;;;;4.03;2.67;;;18.70;99.90;;;;;;5014880;28;20207;-61
2022/05/27 04:57:44;;;;;;;4.18;1.90;;;18.70;99.90;;;;;;5015194;28;20234;-60
2022/05/27 05:00:14;;;;;;;2.80;1.48;;;18.70;99.90;;;;;;5014873;28;20213;-61
2022/05/27 05:02:42;;;;;;;3.80;1.63;;;18.80;99.90;;;;;;5015142;28;20211;-60
2022/05/27 05:05:09;;;;;;;5.10;1.65;;;18.80;99.90;;;;;;5015200;28;20408;-60
2022/05/27 05:07:36;;;;;;;2.67;1.63;;;18.90;99.90;;;;;;5014797;28;20231;-61
2022/05/27 05:10:04;;;;;;;2.58;1.63;;;18.90;99.90;;;;;;5015311;28;20217;-61
2022/05/27 05:12:31;;;;;;;3.58;2.08;;;18.90;99.90;;;;;;5014860;28;20211;-60
2022/05/27 05:14:59;;;;;;;2.88;1.48;;;18.90;99.90;;;;;;5014557;28;20210;-60
2022/05/27 05:19:53;;;;;;;4.63;2.10;;;19.00;99.90;;;;;;5054930;23;20282;-61
2022/05/27 05:22:20;;;;;;;4.97;1.85;;;18.90;99.90;;;;;;5034891;28;20210;-60
2022/05/27 05:24:47;;;;;;;3.45;1.83;;;18.90;99.90;;;;;;5034354;28;20209;-60
2022/05/27 05:27:13;;;;;;;3.25;1.60;;;18.90;99.90;;;;;;5035288;28;20206;-60
2022/05/27 05:29:40;;;;;;;4.40;2.03;;;18.90;99.90;;;;;;5034345;28;20280;-60
2022/05/27 05:32:09;;;;;;;4.22;1.70;;;18.90;99.90;;;;;;5034283;28;20214;-60
2022/05/27 05:34:35;;;;;;;2.33;1.55;;;18.80;99.90;;;;;;5033931;28;20280;-61
2022/05/27 05:37:02;;;;;;;3.17;1.88;;;18.90;99.90;;;;;;5034056;28;20253;-61
2022/05/27 05:39:29;;;;;;;3.63;1.90;;;18.90;99.90;;;;;;5033922;28;20226;-61
2022/05/27 05:42:00;;;;;;;3.97;1.83;;;18.80;99.90;;;;;;5033831;28;20670;-61
2022/05/27 05:44:27;;;;;;;3.38;1.75;;;18.70;99.90;;;;;;5033907;28;20213;-61
2022/05/27 05:46:54;;;;;;;2.90;1.90;;;18.70;99.90;;;;;;5033540;28;20206;-61
2022/05/27 05:49:23;;;;;;;5.28;2.30;;;18.70;99.90;;;;;;5033584;28;20226;-61
2022/05/27 05:51:51;;;;;;;4.72;1.98;;;18.70;99.90;;;;;;5034002;28;20210;-61
2022/05/27 05:54:19;;;;;;;2.90;1.75;;;18.80;99.90;;;;;;5033792;28;20210;-61
2022/05/27 05:56:46;;;;;;;2.75;1.77;;;18.90;99.90;;;;;;5033136;28;20571;-61
2022/05/27 05:59:14;;;;;;;6.03;1.95;;;18.90;99.90;;;;;;5033465;28;20635;-61
2022/05/27 06:01:41;;;;;;;5.00;2.15;;;18.90;99.90;;;;;;5033369;28;20216;-61
2022/05/27 06:04:08;;;;;;;4.38;2.25;;;18.90;99.90;;;;;;5033581;28;20629;-60
2022/05/27 06:06:36;;;;;;;4.05;2.13;;;19.00;99.90;;;;;;5033274;28;20206;-62
2022/05/27 06:09:04;;;;;;;8.48;2.67;;;18.90;99.90;;;;;;5033502;28;20234;-61
2022/05/27 06:11:31;;;;;;;4.88;2.50;;;18.80;99.90;;;;;;5032618;28;20217;-60
2022/05/27 06:13:57;;;;;;;7.93;2.40;;;18.80;99.90;;;;;;5033387;28;20206;-61
2022/05/27 06:16:24;;;;;;;3.05;2.03;;;18.80;99.90;;;;;;5032747;28;20214;-61
2022/05/27 06:18:51;;;;;;;4.18;2.28;;;18.90;99.90;;;;;;5032819;28;20230;-61
2022/05/27 06:21:18;;;;;;;6.55;2.53;;;18.90;99.90;;;;;;5033169;28;20622;-61
2022/05/27 06:23:46;;;;;;;3.47;2.28;;;18.90;99.90;;;;;;5033081;28;20210;-61
2022/05/27 06:26:13;;;;;;;5.97;2.30;;;18.90;99.90;;;;;;5032645;28;20270;-61
2022/05/27 06:34:24;;;;;;;5.55;2.53;;;19.00;99.90;;;;;;5032977;28;20228;-61
2022/05/27 06:36:54;;;;;;;4.05;2.50;;;19.00;99.90;;;;;;5032675;28;20202;-61
2022/05/27 06:39:23;;;;;;;5.43;2.38;;;19.00;99.90;;;;;;5032349;28;20317;-61
2022/05/27 06:41:50;;;;;;;4.05;2.50;;;19.00;99.90;;;;;;5032719;28;20682;-62
2022/05/27 06:44:17;;;;;;;7.28;3.00;;;19.00;99.90;;;;;;5032496;28;20588;-62
2022/05/27 06:46:44;;;;;;;4.93;2.67;;;18.80;99.90;;;;;;5032239;28;20631;-63
2022/05/27 06:49:12;;;;;;;6.13;3.28;;;18.70;99.90;;;;;;5032743;28;20230;-63
2022/05/27 06:51:39;;;;;;;5.47;2.58;;;18.50;99.90;;;;;;5032732;28;20583;-64
2022/05/27 06:54:09;;;;;;;5.22;3.05;;;18.50;99.90;;;;;;5032481;28;20206;-64
2022/05/27 06:56:39;;;;;;;6.00;2.92;;;18.40;99.90;;;;;;5032785;28;20206;-64
2022/05/27 06:59:07;;;;;;;4.82;2.55;;;18.30;99.90;;;;;;5032883;28;20222;-64
2022/05/27 07:01:35;;;;;;;5.05;2.35;;;18.20;99.90;;;;;;5032666;28;20604;-63
2022/05/27 07:04:03;;;;;;;4.50;2.58;;;18.20;99.90;;;;;;5032613;28;20256;-64
2022/05/27 07:06:33;;;;;;;3.97;2.33;;;18.20;99.90;;;;;;5031890;28;20210;-63
2022/05/27 07:09:01;;;;;;;4.25;2.13;;;18.20;99.90;;;;;;5032289;28;20284;-63
2022/05/27 07:11:28;;;;;;;4.28;2.50;;;18.30;99.90;;;;;;5032510;28;20245;-63
2022/05/27 07:13:56;;;;;;;7.43;3.45;;;18.40;99.90;;;;;;5032371;28;20212;-63
2022/05/27 07:16:23;;;;;;;3.88;2.47;;;18.50;99.90;;;;;;5031854;28;20605;-64
2022/05/27 07:18:49;;;;;;;4.90;2.03;;;18.50;99.90;;;;;;5031953;28;20233;-64
2022/05/27 07:21:16;;;;;;;4.30;2.47;;;18.50;99.90;;;;;;5032492;28;20206;-63
2022/05/27 07:23:44;;;;;;;4.60;2.45;;;18.60;99.90;;;;;;5032295;28;20206;-63
2022/05/27 07:26:11;;;;;;;4.47;2.22;;;18.50;99.90;;;;;;5031842;28;20210;-64
2022/05/27 07:28:37;;;;;;;5.90;2.08;;;18.60;99.90;;;;;;5032001;28;20226;-63
2022/05/27 07:31:05;;;;;;;6.45;2.42;;;18.60;99.90;;;;;;5031838;28;20670;-63
2022/05/27 07:33:32;;;;;;;3.17;2.20;;;18.80;99.90;;;;;;5031791;28;20271;-64
2022/05/27 07:35:59;;;;;;;5.63;2.10;;;18.90;99.90;;;;;;5031717;28;20265;-63
2022/05/27 07:38:26;;;;;;;3.35;2.15;;;18.90;99.90;;;;;;5031872;28;20230;-64
2022/05/27 07:40:52;;;;;;;3.55;2.40;;;19.00;99.90;;;;;;5031974;28;20206;-64
2022/05/27 07:43:20;;;;;;;5.22;2.33;;;19.00;99.90;;;;;;5032040;28;20629;-63
2022/05/27 07:45:49;;;;;;;3.03;2.10;;;18.90;99.90;;;;;;5031765;28;20209;-63
2022/05/27 07:48:17;;;;;;;4.28;2.03;;;18.90;99.90;;;;;;5031901;28;20320;-63
2022/05/27 07:50:43;;;;;;;5.15;2.10;;;19.00;99.90;;;;;;5032152;28;20226;-63
2022/05/27 07:53:11;;;;;;;5.32;2.40;;;19.00;99.90;;;;;;5031799;28;20670;-64
2022/05/27 07:55:37;;;;;;;3.78;2.05;;;19.10;99.90;;;;;;5032112;28;20256;-64
2022/05/27 07:58:04;;;;;;;3.60;1.92;;;19.10;99.90;;;;;;5031899;28;20233;-63
2022/05/27 08:00:34;;;;;;;4.18;1.95;;;19.00;99.90;;;;;;5031732;28;20205;-64
2022/05/27 08:03:00;;;;;;;2.70;2.00;;;18.90;99.90;;;;;;5031963;28;20233;-63
2022/05/27 08:05:30;;;;;;;2.33;1.70;;;19.00;99.90;;;;;;5031616;28;20580;-63
2022/05/27 08:07:59;;;;;;;3.05;1.80;;;19.10;99.90;;;;;;5031616;28;20606;-63
2022/05/27 08:10:30;;;;;;;3.80;1.83;;;19.30;99.90;;;;;;5031580;28;20240;-63
2022/05/27 08:12:56;;;;;;;4.25;1.90;;;19.40;99.90;;;;;;5031694;28;20206;-63
2022/05/27 08:15:23;;;;;;;6.72;2.28;;;19.60;99.90;;;;;;5031490;28;20241;-63
2022/05/27 08:17:50;;;;;;;5.10;2.15;;;19.70;99.90;;;;;;5031461;28;20242;-64
2022/05/27 08:20:20;;;;;;;4.82;2.40;;;19.80;99.90;;;;;;5032020;28;20206;-63
2022/05/27 08:22:49;;;;;;;3.85;2.45;;;19.80;99.90;;;;;;5031665;28;20260;-63
2022/05/27 08:25:17;;;;;;;3.20;2.35;;;19.60;99.90;;;;;;5031560;28;20253;-64
2022/05/27 08:27:44;;;;;;;3.45;2.25;;;19.40;99.90;;;;;;5033931;28;20202;-63
2022/05/27 08:30:13;;;;;;;4.38;2.40;;;19.40;99.90;;;;;;5037610;28;20230;-64
2022/05/27 08:32:40;;;;;;;6.18;2.70;;;19.30;99.90;;;;;;5036244;28;20274;-64
2022/05/27 08:38:01;;;;;;;4.22;1.92;;;19.20;99.90;;;;;;5013199;28;20218;-64
2022/05/27 08:40:57;;;;;;;3.05;2.30;;;19.10;99.90;;;;;;5036031;28;20202;-64
2022/05/27 08:43:30;;;;;;;4.43;2.03;;;19.00;99.90;;;;;;5035539;28;20206;-64
2022/05/27 08:46:07;;;;;;;4.05;2.10;;;19.00;99.90;;;;;;5035258;28;20206;-64
2022/05/27 08:48:38;;;;;;;4.55;2.15;;;19.00;99.90;;;;;;5035938;28;20241;-64
2022/05/27 08:51:14;;;;;;;4.53;2.13;;;19.10;99.90;;;;;;5035550;28;20203;-64
2022/05/27 08:53:48;;;;;;;4.00;2.10;;;19.20;99.90;;;;;;5035422;28;20209;-64
2022/05/27 08:59:27;;;;;;;3.60;2.00;;;19.40;99.90;;;;;;5035247;28;20216;-63
2022/05/27 09:01:57;;;;;;;3.72;2.45;;;19.40;99.90;;;;;;5034891;28;20345;-64
2022/05/27 09:04:30;;;;;;;6.05;2.28;;;19.50;99.90;;;;;;5034744;28;20264;-63
2022/05/27 09:07:03;;;;;;;4.35;1.88;;;19.50;99.90;;;;;;5034520;28;20214;-64
2022/05/27 09:09:32;;;;;;;2.83;1.92;;;19.60;99.90;;;;;;5034460;28;20230;-64
2022/05/27 09:12:18;;;;;;;3.00;2.25;;;19.70;99.90;;;;;;5034544;28;20267;-64
2022/05/27 09:14:48;;;;;;;4.50;2.47;;;19.70;99.90;;;;;;5034643;28;20233;-64
2022/05/27 09:17:17;;;;;;;4.13;2.30;;;19.70;99.90;;;;;;5034222;28;20206;-63
2022/05/27 09:19:50;;;;;;;5.38;1.80;;;20.00;99.90;;;;;;5034178;28;20733;-63
2022/05/27 09:22:26;;;;;;;5.78;4.15;;;20.30;99.90;;;;;;5034668;28;20226;-63
2022/05/27 09:25:02;;;;;;;5.00;2.10;;;20.60;99.90;;;;;;5034634;28;20209;-63
2022/05/27 09:27:42;;;;;;;4.05;1.90;;;21.20;99.90;;;;;;5035367;28;20632;-64
2022/05/27 09:30:11;;;;;;;4.68;2.00;;;21.90;99.90;;;;;;5035884;28;20744;-63
2022/05/27 09:32:46;;;;;;;4.35;1.85;;;22.40;99.90;;;;;;5035194;28;20233;-63
2022/05/27 09:35:18;;;;;;;2.28;1.70;;;22.70;99.90;;;;;;5035562;28;20237;-64
2022/05/27 09:37:48;;;;;;;4.78;1.75;;;23.00;99.90;;;;;;5035617;28;20210;-64
2022/05/27 09:40:19;;;;;;;4.00;1.92;;;23.20;99.90;;;;;;5034171;28;20666;-64
2022/05/27 09:42:55;;;;;;;4.18;1.90;;;23.50;99.30;;;;;;5033995;28;20217;-63
2022/05/27 09:45:22;;;;;;;1.60;1.50;;;24.00;98.60;;;;;;5033912;28;20232;-63
2022/05/27 09:47:49;;;;;;;3.70;1.42;;;24.50;97.50;;;;;;5034164;28;20222;-63
2022/05/27 09:50:27;;;;;;;2.58;1.60;;;24.80;96.60;;;;;;5034123;28;20226;-63
2022/05/27 09:52:57;;;;;;;2.50;1.70;;;25.20;94.30;;;;;;5033907;28;20244;-64
2022/05/27 09:55:28;;;;;;;3.65;1.33;;;25.40;93.70;;;;;;5033429;28;20305;-64
2022/05/27 09:58:00;;;;;;;2.25;1.35;;;25.50;92.80;;;;;;5033630;28;20222;-64
2022/05/27 10:00:45;;;;;;;3.33;1.77;;;25.30;93.10;;;;;;5034080;28;20558;-64
2022/05/27 10:03:27;;;;;;;4.10;1.80;;;25.00;92.80;;;;;;5033842;28;20206;-63
2022/05/27 10:05:56;;;;;;;2.90;1.60;;;24.80;92.60;;;;;;5033346;28;20218;-64
2022/05/27 10:08:32;;;;;;;2.83;1.38;;;24.60;93.00;;;;;;5033593;28;20230;-63
2022/05/27 10:11:17;;;;;;;2.90;1.52;;;24.70;92.60;;;;;;5033555;28;20237;-63
2022/05/27 10:13:44;;;;;;;5.97;1.83;;;24.70;92.70;;;;;;5033401;28;20267;-63
2022/05/27 10:16:15;;;;;;;3.25;2.38;;;24.80;92.70;;;;;;5032854;28;20211;-64
2022/05/27 10:18:44;;;;;;;3.80;1.70;;;24.80;92.70;;;;;;5033206;28;20234;-63
2022/05/27 10:21:14;;;;;;;3.78;1.58;;;24.50;93.10;;;;;;5033524;28;20202;-63
2022/05/27 10:23:43;;;;;;;4.50;1.50;;;24.30;93.20;;;;;;5033201;28;20221;-64
2022/05/27 10:26:23;;;;;;;3.00;1.63;;;24.20;93.70;;;;;;5033077;28;20209;-64
2022/05/27 10:28:58;;;;;;;1.40;1.30;;;24.20;93.70;;;;;;5033633;28;20226;-63
2022/05/27 10:31:25;;;;;;;1.77;1.40;;;24.40;93.50;;;;;;5033722;28;20279;-63
2022/05/27 10:33:53;;;;;;;3.72;1.70;;;24.60;92.60;;;;;;5033596;28;20214;-63
2022/05/27 10:36:57;;;;;;;2.50;1.60;;;24.60;92.70;;;;;;5033209;28;20313;-63
2022/05/27 10:39:29;;;;;;;2.00;1.38;;;24.60;92.40;;;;;;5033213;28;20238;-63
2022/05/27 10:42:09;;;;;;;1.95;1.52;;;24.60;93.00;;;;;;5033706;28;20213;-63
2022/05/27 10:44:48;;;;;;;2.72;1.33;;;24.70;92.80;;;;;;5035916;28;20217;-63
2022/05/27 10:47:36;;;;;;;2.90;1.35;;;24.80;92.00;;;;;;5039994;28;20757;-63
2022/05/27 10:50:19;;;;;;;4.57;1.42;;;24.90;91.40;;;;;;5037018;28;20238;-63
2022/05/27 10:53:13;;;;;;;3.83;1.60;;;25.10;90.60;;;;;;5033607;28;20214;-63
2022/05/27 10:55:52;;;;;;;1.95;1.48;;;25.10;90.70;;;;;;5032482;28;20307;-63
2022/05/27 11:04:49;;;;;;;2.67;1.65;;;24.30;91.20;;;;;;5034044;28;20205;-64
2022/05/27 11:07:29;;;;;;;5.10;1.52;;;24.20;91.30;;;;;;5033360;28;20213;-64
2022/05/27 11:10:10;;;;;;;3.33;1.98;;;24.00;91.50;;;;;;5035618;28;20229;-64
2022/05/27 11:15:47;;;;;;;3.20;1.48;;;24.00;91.50;;;;;;5040384;28;20249;-65
2022/05/27 11:18:25;;;;;;;3.50;1.55;;;23.90;91.80;;;;;;5061887;22;20240;-64
2022/05/27 11:21:20;;;;;;;4.25;1.77;;;24.00;91.50;;;;;;5032936;28;20194;-64
2022/05/27 11:24:15;;;;;;;3.83;1.83;;;24.10;91.30;;;;;;5032884;28;20281;-64
2022/05/27 11:26:50;;;;;;;2.58;1.65;;;24.10;91.30;;;;;;5032191;28;20214;-63
2022/05/27 11:29:55;;;;;;;2.70;1.60;;;24.20;92.00;;;;;;5032583;28;20229;-64
2022/05/27 11:32:47;;;;;;;3.05;1.60;;;24.10;91.80;;;;;;5032667;28;20214;-65
2022/05/27 11:35:20;;;;;;;3.65;1.70;;;24.10;91.70;;;;;;5031972;28;20207;-63
2022/05/27 11:38:01;;;;;;;3.17;1.50;;;24.30;91.70;;;;;;5032350;28;20226;-64
2022/05/27 11:40:38;;;;;;;7.20;1.70;;;24.50;91.50;;;;;;5032111;28;20206;-63
2022/05/27 11:43:37;;;;;;;2.60;1.30;;;24.70;91.00;;;;;;5032527;28;20205;-64
2022/05/27 11:46:29;;;;;;;2.72;1.70;;;25.10;90.60;;;;;;5032119;28;20210;-64
2022/05/27 11:49:08;;;;;;;1.70;1.38;;;25.30;90.00;;;;;;5032263;28;20234;-63
2022/05/27 11:51:44;;;;;;;2.80;2.00;;;25.20;88.30;;;;;;5032008;28;20230;-65
2022/05/27 11:54:33;;;;;;;3.17;2.30;;;25.00;89.10;;;;;;5032191;28;20210;-64
2022/05/27 11:57:16;;;;;;;11.93;4.75;;;25.00;89.70;;;;;;5031906;28;20210;-63
2022/05/27 11:59:50;;;;;;;4.18;1.90;;;25.00;90.00;;;;;;5031615;28;20600;-67
2022/05/27 12:02:28;;;;;;;2.55;1.33;;;25.00;89.80;;;;;;5032199;28;20202;-65
2022/05/27 12:05:02;;;;;;;3.40;1.20;;;25.10;88.70;;;;;;5032188;28;20206;-63
2022/05/27 12:07:35;;;;;;;3.03;1.17;;;25.20;87.20;;;;;;5031460;28;20272;-64
2022/05/27 12:10:14;;;;;;;4.30;1.60;;;25.20;87.00;;;;;;5032179;28;20241;-63
2022/05/27 12:12:47;;;;;;;2.97;1.30;;;25.10;86.50;;;;;;5035667;28;20210;-62
2022/05/27 12:15:23;;;;;;;3.05;1.20;;;25.00;87.80;;;;;;5035008;28;20209;-63
2022/05/27 12:17:52;;;;;;;1.20;1.08;;;24.80;88.30;;;;;;5035438;28;20209;-63
2022/05/27 12:20:23;;;;;;;1.40;0.90;;;24.50;88.30;;;;;;5035319;28;20198;-63
2022/05/27 12:22:53;;;;;;;4.38;0.98;;;24.20;88.40;;;;;;5035747;28;20307;-63
2022/05/27 12:25:22;;;;;;;3.33;1.00;;;24.10;89.10;;;;;;5035241;28;20202;-64
2022/05/27 12:27:51;;;;;;;2.00;1.10;;;24.10;89.10;;;;;;5035143;28;20218;-62
2022/05/27 12:30:23;;;;;;;3.08;1.20;;;24.20;89.10;;;;;;5035333;28;20226;-64
2022/05/27 12:32:50;;;;;;;1.25;1.08;;;24.30;89.30;;;;;;5035801;28;20218;-62
2022/05/27 12:35:42;;;;;;;1.70;1.13;;;24.30;88.60;;;;;;5035415;28;20207;-64
2022/05/27 12:38:13;;;;;;;1.23;0.88;;;24.50;88.60;;;;;;5035805;28;20230;-62
2022/05/27 12:40:44;;;;;;;4.25;1.23;;;24.60;89.10;;;;;;5035798;28;20206;-65
2022/05/27 12:43:21;;;;;;;1.60;0.98;;;24.80;89.00;;;;;;5035480;28;20265;-62
2022/05/27 12:45:52;;;;;;;2.80;1.15;;;25.10;87.90;;;;;;5035267;28;20674;-63
2022/05/27 12:48:33;;;;;;;3.50;1.50;;;25.30;87.50;;;;;;5035402;28;20229;-62
2022/05/27 12:51:05;;;;;;;2.97;1.00;;;25.20;88.30;;;;;;5035132;28;20625;-63
2022/05/27 12:53:49;;;;;;;3.45;0.88;;;25.10;88.50;;;;;;5035166;28;20210;-61
2022/05/27 13:02:52;;;;;;;4.45;1.00;;;25.70;86.30;;;;;;5035114;28;20205;-62
2022/05/27 13:05:21;;;;;;;2.17;1.05;;;25.60;84.90;;;;;;5034614;28;20555;-64
2022/05/27 13:07:52;;;;;;;2.25;1.10;;;25.40;85.10;;;;;;5034915;28;20203;-63
2022/05/27 13:10:53;;;;;;;1.45;1.00;;;25.30;85.70;;;;;;5034669;28;20222;-65
2022/05/27 13:13:29;;;;;;;2.72;0.90;;;25.40;85.70;;;;;;5035265;28;20641;-62
2022/05/27 13:16:11;;;;;;;3.05;1.20;;;25.70;85.30;;;;;;5034910;28;20209;-63
2022/05/27 13:18:51;;;;;;;1.30;0.93;;;26.10;84.50;;;;;;5034728;28;20230;-62
2022/05/27 13:21:22;;;;;;;1.10;0.68;;;26.20;83.70;;;;;;5034536;28;20202;-63
2022/05/27 13:23:58;;;;;;;2.88;1.00;;;26.40;83.20;;;;;;5035292;28;20191;-63
2022/05/27 13:26:40;;;;;;;2.95;1.08;;;26.30;82.80;;;;;;5034959;28;20241;-65
2022/05/27 13:29:23;;;;;;;2.58;1.35;;;26.20;84.70;;;;;;5034889;28;20230;-63
2022/05/27 13:31:52;;;;;;;1.50;0.95;;;26.00;83.40;;;;;;5034851;28;20233;-64
2022/05/27 13:34:24;;;;;;;3.28;1.30;;;25.80;84.10;;;;;;5034618;28;20677;-63
2022/05/27 13:36:56;;;;;;;3.20;1.38;;;25.60;83.60;;;;;;5034608;28;20696;-63
2022/05/27 13:39:27;;;;;;;3.60;1.20;;;25.50;84.70;;;;;;5034622;28;20230;-64
2022/05/27 13:41:55;;;;;;;1.40;1.00;;;25.70;84.00;;;;;;5034551;28;20229;-63
2022/05/27 13:44:24;;;;;;;2.38;1.20;;;25.80;83.60;;;;;;5034405;28;20268;-64
2022/05/27 13:46:52;;;;;;;1.92;1.05;;;25.50;83.70;;;;;;5034299;28;20210;-63
2022/05/27 13:49:30;;;;;;;3.35;1.30;;;25.50;85.40;;;;;;5034176;28;20303;-65